Historyczne dane pomiarowe

Dodano dane terminowe – wersja testowa.

Dane z okresu 1951-2019

Wersja bazy: 1.34 [2019-03-16, lista zmian], aktualizacja planowana na 2019-04-15

Dane meteo z obszaru Polski uzyskane na podstawie danych udostępnionych przez Instytut Meteorologii i Gospodarki Wodnej – Państwowy Instytut Badawczy.

 

Wybierz Datę:    

       

TemperaturaWilgotnośćWiatrCiśnienieOpadyŚniegCzas trwania zjawisk
 Stacja t tx tn tng RH VA  wxwx mslp ppp RRR   cm mm wxwxwxwxwxwxwx
2020-02-29 2.7 6.9 -0.8 -2.4 73.3 5.3- 5.8--1012.3 984.8 0.1 0.0 0.0- 0.0--------
2020-02-28 0.0 3.9 -3.4 -4.6 89.1 5.4- 2.1--1009.2 981.5 0.9 0.5 0.4- 0.0--------
2020-02-27 1.8 5.7 0.3 -0.5 80.6 5.6- 5.8--1001.9 974.6 0.1 0.1 0.0- 0.0--------
2020-02-26 6.4 9.6 5.2 4.5 85.3 8.2- 3.8-- 995.4 968.6 0.4 0.4 0.0- 0.0--------
2020-02-25 4.4 7.1 0.5 0.0 83.6 7.0- 5.5--1003.7 976.5 1.4 0.6 0.8- 0.0--------
2020-02-24 3.7 8.1 0.7 0.0 85.0 6.8- 8.9--1009.7 982.3 1.4 0.4 1.0- 0.0--------
2020-02-23 5.3 7.3 2.8 2.7 79.4 7.0- 6.9--1010.0 982.8 16.6 4.6 12.0- 0.0--------
2020-02-22 4.2 8.4 -0.8 -1.7 71.5 5.7- 6.8--1023.0 995.3 0.5 0.0 0.5- 0.0--------
2020-02-21 0.2 3.1 -4.3 -6.8 89.3 5.6- 3.9--1019.8 991.9 1.9 0.3 1.6- 0.0--------
2020-02-20 2.5 6.3 -0.2 -3.0 83.8 6.1- 3.6--1020.9 993.2 0.0 0.0 0.0- 0.0--------
2020-02-19 4.3 7.8 0.2 -0.7 71.3 5.8- 4.6--1018.1 990.6 0.3 0.0 0.3- 0.0--------
2020-02-18 6.8 10.2 4.2 3.3 77.8 7.7- 5.9--1018.9 991.6 0.0 0.0 0.0- 0.0--------
2020-02-17 9.2 13.3 6.0 5.1 53.5 6.2- 7.5--1017.0 990.0 1.5 0.0 1.5- 0.0--------
2020-02-16 4.0 10.1 -3.7 -5.2 70.1 5.6- 6.9--1024.1 996.4 0.0 0.0 0.0- 0.0--------
2020-02-15 0.2 3.0 -0.6 -2.3 87.1 5.4- 3.1--1028.71000.5 0.0 0.0 0.0- 0.0--------
2020-02-14 1.6 3.1 -1.3 -3.9 86.1 6.0- 2.9--1015.4 987.7 0.1 0.1 0.0- 0.0--------
2020-02-13 1.5 5.6 -0.6 -4.2 74.0 5.0- 6.6--1016.1 988.4 0.1 0.0 0.1- 0.0--------
2020-02-12 2.1 4.0 0.3 -0.2 73.8 5.2- 8.9--1007.3 979.8 0.0 0.0 0.0- 0.0--------
2020-02-11 2.8 6.3 1.1 0.2 76.4 5.7- 8.3-- 997.5 970.4 3.0 3.0 0.0- 0.0--------
2020-02-10 4.7 7.9 1.0 0.0 68.9 6.0- 10.5--1000.4 973.4 3.8 2.8 1.0- 0.0--------
2020-02-09 0.7 5.2 -3.7 -5.5 60.3 3.8- 4.6--1024.6 996.6 0.0 0.0 0.0- 0.0--------
2020-02-08 -2.5 2.3 -6.9 -7.2 69.8 3.5- 3.0--1030.21001.7 0.0 0.0 0.0- 0.0--------
2020-02-07 -2.0 2.2 -4.0 -4.3 74.0 4.0- 4.4--1026.9 998.6 0.0 0.0 0.0- 0.0--------
2020-02-06 -1.0 1.3 -4.6 -5.5 89.9 5.2- 6.6--1021.5 993.4 2.8 0.1 2.7- 0.0--------
2020-02-05 -0.5 3.4 -2.9 -3.8 73.9 4.4- 5.9--1016.4 988.5 0.0 0.0 0.0- 0.0--------
2020-02-04 4.2 5.2 1.4 0.5 92.5 7.6- 4.0--1000.2 973.2 13.6 13.6 0.0- 0.0--------
2020-02-03 3.6 7.2 3.0 2.4 86.5 6.8- 5.8--1005.6 978.3 2.0 0.0 2.0- 0.0--------
2020-02-02 7.8 9.3 6.0 5.0 76.5 8.1- 8.9--1004.1 977.3 2.9 0.0 2.9- 0.0--------
2020-02-01 7.2 10.5 4.8 4.4 87.0 8.8- 6.0--1006.9 979.9 1.3 0.0 1.3- 0.0--------
2020-01-31 4.4 7.7 0.6 0.0 88.6 7.5- 7.1--1003.2 976.1 11.3 9.9 0.0- 0.0--------
2020-01-30 1.8 3.7 0.5 0.0 88.0 6.1- 6.8--1009.1 981.6 2.7 1.0 1.7- 0.0--------
2020-01-29 1.7 4.6 0.6 -0.1 87.5 6.0- 6.8--1002.0 974.7 3.4 1.0 2.4- 0.0--------
2020-01-28 1.4 5.9 -2.6 -5.4 84.5 5.7- 4.1--1006.1 978.6 4.4 0.0 4.4- 0.0--------
2020-01-27 0.4 5.7 -4.1 -6.4 80.1 5.0- 2.8--1016.7 988.9 0.0 0.0 0.0- 0.0--------
2020-01-26 0.0 4.4 -2.0 -3.8 80.9 4.9- 2.3--1022.0 994.0 0.0 0.0 0.0- 0.0--------
2020-01-25 -0.7 2.4 -2.8 -3.2 81.8 4.7- 5.9--1021.6 993.5 0.0 0.0 0.0- 0.0--------
2020-01-24 0.0 4.1 -3.2 -5.6 74.5 4.5- 5.0--1024.1 996.0 0.0 0.0 0.0- 0.0--------
2020-01-23 0.5 2.3 -0.8 -1.5 81.1 5.1- 5.9--1030.71002.5 0.0 0.0 0.0- 0.0--------
2020-01-22 0.7 2.9 -0.4 -1.0 80.9 5.2- 8.9--1024.7 996.7 0.0 0.0 0.0- 0.0--------
2020-01-21 1.7 4.8 -0.4 -0.7 72.8 5.0- 8.0--1037.11008.8 0.0 0.0 0.0- 0.0--------
2020-01-20 0.4 1.4 -1.1 -0.8 92.0 5.8- 2.5--1043.21014.6 0.0 0.0 0.0- 0.0--------
2020-01-19 -1.9 -1.1 -3.0 -4.0 96.5 5.2- 0.4--1031.61003.1 0.0 0.0 0.0- 0.0--------
2020-01-18 -0.6 2.6 -3.1 -4.9 91.6 5.4- 2.5--1026.0 997.8 0.0 0.0 0.0- 0.0--------
2020-01-17 -1.2 1.6 -7.2 -7.9 93.1 5.3- 3.1--1031.81003.4 0.0 0.0 0.0- 0.0--------
2020-01-16 2.3 5.9 0.3 -1.7 78.9 5.7- 4.8--1029.91001.9 0.0 0.0 0.0- 0.0--------
2020-01-15 4.1 8.3 -0.2 -1.5 68.4 5.6- 4.9--1024.8 997.1 0.0 0.0 0.0- 0.0--------
2020-01-14 2.0 5.8 -0.3 -2.2 76.9 5.4- 3.8--1023.4 995.6 0.0 0.0 0.0- 0.0--------
2020-01-13 2.3 5.0 0.4 0.0 78.6 5.7- 6.9--1023.3 995.4 0.0 0.0 0.0- 0.0--------
2020-01-12 2.9 5.7 2.0 1.6 81.9 6.2- 5.0--1026.8 998.9 0.0 0.0 0.0- 0.0--------
2020-01-11 4.4 6.2 3.4 2.9 89.6 7.5- 7.0--1024.4 996.7 0.6 0.6 0.0- 0.0--------
2020-01-10 3.0 4.9 1.0 0.6 79.4 6.0- 6.1--1018.4 990.7 0.4 0.0 0.4- 0.0--------
2020-01-09 0.9 1.2 -0.4 -0.8 93.9 6.1- 5.3--1023.9 995.8 0.8 0.3 0.5- 0.0--------
2020-01-08 0.2 1.8 -5.0 -6.6 81.4 5.1- 4.9--1028.51000.3 1.1 0.0 1.1- 0.0--------
2020-01-07 -0.7 2.6 -4.0 -6.2 71.9 4.1- 1.8--1028.1 999.8 0.0 0.0 0.0- 0.0--------
2020-01-06 -1.8 -0.1 -4.6 -6.5 85.9 4.6- 3.5--1031.51003.0 0.0 0.0 0.0- 0.0--------
2020-01-05 0.3 2.0 -1.0 -1.8 81.6 5.1- 6.4--1023.4 995.4 0.0 0.0 0.0- 0.0--------
2020-01-04 1.7 3.6 -0.9 -1.5 84.3 5.9- 7.1--1014.4 986.7 0.6 0.1 0.5- 0.0--------
2020-01-03 -0.1 3.9 -3.4 -6.8 65.8 4.0- 4.5--1023.1 995.0 0.0 0.0 0.0- 0.0--------
2020-01-02 0.8 3.2 -0.4 -1.1 71.6 4.6- 4.3--1027.8 999.7 0.0 0.0 0.0- 0.0--------
2020-01-01 1.5 4.5 -0.4 -1.4 80.1 5.4- 6.5--1029.11001.0 0.0 0.0 0.0- 0.0--------
83.2 ms

 

Źródłem pochodzenia danych jest Instytut Meteorologii i Gospodarki Wodnej – Państwowy Instytut Badawczy. Dane Instytutu Meteorologii i Gospodarki Wodnej – Państwowego Instytutu Badawczego zostały przetworzone.

Dane źródłowe można odnaleźć na stronie https://dane.imgw.pl